Date,TemperatureHighF,TemperatureAvgF,TemperatureLowF,DewpointHighF,DewpointAvgF,DewpointLowF,HumidityHigh,HumidityAvg,HumidityLow,PressureMaxIn,PressureMinIn,WindSpeedMaxMPH,WindSpeedAvgMPH,GustSpeedMaxMPH,PrecipitationSumIn
2019-1-1,42.9,40.0,37.1,41.8,38.6,31.9,96,92,81,30.51,30.27,12,4,21,0.02
2019-1-2,37.4,33.0,28.6,32.5,27.2,20.9,91,75,60,30.60,30.32,13,5,26,0.05
2019-1-3,32.2,28.9,25.6,30.6,25.7,19.7,95,85,74,30.65,30.60,7,3,12,0.01
2019-1-4,33.8,31.8,29.8,32.3,29.7,27.8,94,91,86,30.65,30.48,11,3,15,0.06
2019-1-5,40.7,36.8,32.9,39.0,35.3,31.3,96,94,93,30.49,30.31,13,5,23,0.29
2019-1-6,40.2,39.0,37.8,38.7,37.6,36.2,95,94,93,30.49,30.36,13,4,18,0.09
2019-1-7,38.3,36.8,35.2,36.5,35.2,33.4,95,93,90,30.52,30.23,11,4,20,0.09
2019-1-8,40.7,37.5,34.4,37.4,35.0,32.5,95,91,83,30.23,29.88,13,6,25,0.18
2019-1-9,37.6,33.8,30.0,33.0,29.7,27.2,96,88,80,30.08,29.86,15,6,25,0.06
2019-1-10,32.4,28.7,25.0,29.4,26.9,22.3,94,88,78,30.32,30.08,10,4,16,0.00
2019-1-11,32.7,29.1,25.5,31.4,27.2,22.8,95,92,87,30.32,30.21,8,3,14,0.00
2019-1-12,37.3,35.0,32.8,36.3,33.2,31.4,96,95,94,30.24,29.92,11,5,16,0.60
2019-1-13,45.6,41.5,37.4,43.6,39.9,36.1,96,94,85,29.94,29.55,14,5,30,0.32
2019-1-14,40.8,37.1,33.5,37.7,34.0,29.0,94,87,80,30.11,29.59,13,4,24,0.13
2019-1-15,39.0,36.1,33.3,35.5,32.4,29.7,92,87,83,30.17,30.10,10,4,20,0.01
2019-1-16,40.6,38.0,35.9,35.5,32.6,30.3,92,83,73,30.10,29.73,10,4,15,0.03
2019-1-17,42.3,37.4,32.6,39.0,35.1,28.9,94,88,77,29.88,29.65,12,4,20,0.28
2019-1-18,34.3,29.3,24.5,29.2,26.5,22.1,94,88,73,30.15,29.88,7,2,12,0.06
2019-1-19,31.3,25.8,20.2,25.2,21.1,18.0,93,86,72,30.14,29.97,9,2,13,0.01
2019-1-20,28.7,23.1,17.5,23.6,19.2,15.3,93,89,80,30.18,29.96,9,2,12,0.00
2019-1-21,29.5,24.0,18.6,23.2,19.4,16.2,92,87,75,30.23,30.12,8,2,13,0.00
2019-1-22,25.9,20.5,15.2,22.1,19.0,12.8,94,89,84,30.12,29.65,10,3,15,0.00
2019-1-23,25.0,23.4,21.9,21.4,19.9,17.8,88,86,84,29.65,29.50,9,5,14,0.01
2019-1-24,24.0,22.9,21.7,20.4,19.0,17.4,91,86,83,29.97,29.65,5,2,9,0.00
2019-1-25,28.8,25.2,21.6,26.6,22.3,18.3,92,88,85,30.05,29.96,12,3,21,0.00
2019-1-26,37.4,32.9,28.4,35.8,32.2,26.3,97,94,91,29.96,29.60,12,6,23,0.11
2019-1-27,41.5,37.1,32.8,38.7,36.6,31.5,96,94,88,29.60,29.18,12,5,20,0.24
2019-1-28,33.2,32.2,31.3,32.1,31.4,29.3,97,95,91,29.68,29.33,11,4,20,0.09
2019-1-29,35.0,30.2,25.4,31.7,29.2,23.7,97,94,87,29.81,29.50,6,1,10,0.09
2019-1-30,34.1,28.9,23.8,30.7,26.4,22.2,96,92,86,29.53,29.34,12,3,18,0.03
2019-1-31,32.0,26.5,21.9,28.4,24.7,20.4,96,92,87,29.53,29.35,9,3,14,0.03
2019-2-1,35.9,32.1,28.5,33.1,30.3,25.3,98,95,87,29.35,29.25,8,2,10,0.12
2019-2-2,38.1,35.0,31.9,36.9,33.9,31.5,99,98,94,29.69,29.28,5,1,8,0.01
2019-2-3,35.8,33.7,31.7,35.4,30.0,27.0,99,89,78,30.35,29.69,13,5,22,0.00
2019-2-4,36.6,31.8,27.0,28.6,25.6,23.0,95,79,60,30.45,30.35,10,3,15,0.00
2019-2-5,39.7,32.5,25.4,31.0,27.2,22.9,95,83,68,30.42,30.34,6,2,8,0.00
2019-2-6,36.9,30.2,23.4,29.5,26.1,22.4,97,89,73,30.40,30.18,5,1,7,0.01
2019-2-7,37.6,30.8,24.0,36.5,29.5,22.7,96,93,83,30.18,29.96,9,3,16,0.02
2019-2-8,44.4,40.3,36.4,37.5,35.4,32.4,93,85,76,30.10,29.84,11,4,18,0.00
2019-2-9,46.5,41.6,36.7,40.3,37.5,31.2,94,86,77,29.93,29.76,16,5,25,0.13
2019-2-10,49.8,44.0,38.2,43.1,38.1,34.3,92,84,68,29.91,29.38,19,7,31,0.20
2019-2-11,40.9,37.5,34.3,34.9,33.0,30.5,93,84,69,30.38,29.60,14,5,25,0.09
2019-2-12,38.9,35.4,32.1,32.2,30.1,28.2,91,82,72,30.64,30.38,8,2,13,0.01
2019-2-13,46.3,38.0,29.8,32.2,28.6,25.9,88,75,52,30.67,30.62,8,2,10,0.00
2019-2-14,46.4,37.3,28.2,37.1,30.5,25.2,91,82,68,30.67,30.61,4,1,6,0.00
2019-2-15,50.4,39.5,28.7,38.9,32.9,26.8,95,81,63,30.62,30.44,5,2,8,0.00
2019-2-16,55.2,42.2,29.3,41.7,33.4,26.9,92,77,58,30.44,30.33,4,1,6,0.00
2019-2-17,56.6,44.0,31.5,44.3,36.1,29.6,95,81,60,30.33,30.21,4,1,5,0.00
2019-2-18,56.7,44.7,32.7,43.6,35.0,30.0,95,75,50,30.21,30.07,4,2,7,0.00
2019-2-19,46.8,42.0,37.3,39.6,35.4,31.9,89,76,64,30.20,30.06,9,3,14,0.00
2019-2-20,50.5,41.0,31.7,39.4,34.9,30.4,97,81,56,30.32,30.20,8,2,13,0.01
2019-2-21,51.3,44.5,37.8,42.6,39.5,34.8,92,83,67,30.41,30.31,6,2,10,0.02
2019-2-22,51.6,45.2,38.9,44.3,41.3,35.0,91,81,67,30.68,30.41,13,4,18,0.00
2019-2-23,43.3,36.2,29.2,35.1,26.8,16.6,89,69,47,30.74,30.67,13,5,17,0.00
2019-2-24,48.1,37.8,27.5,24.0,18.8,15.9,68,48,33,30.71,30.67,9,2,12,0.00
2019-2-25,55.5,42.8,30.2,32.2,24.4,16.6,66,49,34,30.71,30.61,7,2,9,0.00
2019-2-26,61.7,49.8,37.9,39.2,33.8,29.2,77,57,38,30.62,30.47,6,2,9,0.00
2019-2-27,62.6,50.2,38.0,34.5,28.2,23.9,61,45,28,30.47,30.14,5,2,8,0.00
2019-2-28,61.1,52.6,44.2,42.8,36.8,26.6,76,57,41,30.14,29.97,13,4,23,0.00
2019-3-1,47.8,44.4,41.1,43.7,41.7,39.0,94,88,76,30.07,29.87,10,3,17,0.18
2019-3-2,46.8,42.7,38.5,42.7,39.3,35.7,93,89,81,30.08,29.98,9,3,16,0.02
2019-3-3,50.2,47.2,44.3,42.4,41.2,40.1,89,79,71,30.02,29.68,13,5,21,0.00
2019-3-4,52.2,45.6,38.9,41.8,37.7,33.4,89,76,54,29.70,29.42,22,5,37,0.14
2019-3-5,43.5,40.3,37.2,38.4,35.7,33.6,94,87,70,29.94,29.70,14,5,25,0.21
2019-3-6,55.8,45.7,35.6,40.8,37.9,34.0,96,74,49,29.93,29.51,12,4,20,0.00
2019-3-7,53.1,47.8,42.6,42.2,39.0,35.9,88,71,56,29.73,29.39,17,5,32,0.12
2019-3-8,45.9,42.1,38.3,40.6,36.9,33.7,93,82,70,30.07,29.73,13,4,26,0.17
2019-3-9,48.9,43.8,38.7,44.0,39.4,32.8,90,80,70,30.04,29.86,14,6,28,0.07
2019-3-10,55.1,46.0,37.0,49.7,40.7,29.0,93,79,48,30.03,29.61,17,5,43,0.42
2019-3-11,41.1,38.3,35.6,32.8,29.3,25.0,84,70,59,30.26,29.95,16,5,25,0.02
2019-3-12,46.3,39.2,32.3,35.2,28.6,24.5,84,63,44,30.32,29.68,15,6,24,0.02
2019-3-13,46.0,41.4,36.8,38.2,33.6,30.5,91,77,59,29.86,29.66,16,6,32,0.21
2019-3-14,42.0,39.3,36.8,39.3,36.3,34.0,92,90,86,29.90,29.54,18,6,35,0.56
2019-3-15,50.3,45.1,39.9,47.8,42.8,37.0,93,91,87,29.82,29.73,12,5,26,0.47
2019-3-16,51.2,48.1,45.1,47.1,43.5,39.2,92,84,74,29.91,29.73,16,4,31,0.31
2019-3-17,51.8,44.6,37.5,41.8,37.6,32.5,89,77,63,29.92,29.61,13,5,24,0.07
2019-3-18,45.8,38.8,31.9,36.1,32.3,28.9,90,81,63,30.24,29.92,13,3,20,0.02
2019-3-19,45.8,37.7,29.5,34.1,28.7,25.0,93,73,48,30.50,30.24,12,3,15,0.00
2019-3-20,50.7,40.0,29.4,32.3,27.6,21.6,84,63,34,30.59,30.49,8,2,12,0.00
2019-3-21,56.2,44.2,32.3,35.4,30.5,25.7,80,60,37,30.59,30.48,12,3,16,0.00
2019-3-22,60.3,48.8,37.2,40.2,35.9,32.3,85,62,37,30.48,30.33,9,3,12,0.00
2019-3-23,61.7,50.6,39.7,42.5,38.2,33.0,83,64,42,30.34,30.30,11,3,14,0.00
2019-3-24,53.2,46.3,39.6,44.5,39.8,36.4,90,79,66,30.33,30.19,11,3,15,0.00